Flight Track Log - Related Links

Times and Time Zones

All times are in EDT time to prevent confusion due to time zone crossing. See the QTR46 flight status page for this flight to view local times or setup timezone preferences in your user account.

Time Position Orientation Groundspeed Altitude Reporting Facility
EDT Latitude Longitude Course Direction KTS MPH feet Rate Location/Type
Sun 10:12:38 AM 53.3460 -2.2910 230° Southwest 156 180 800  Level FlightAware ADS-B
Sun 10:12:53 AM 53.3390 -2.3050 230° Southwest 142 163 1,600 -1,333 Climbing FlightAware ADS-B
Sun 10:12:56 AM 53.3370 -2.3101 230° Southwest 168 193 400 -1,313 Descending FlightAware UK
Sun 10:13:25 AM 53.3245 -2.3347 230° Southwest 180 207 900 3,750 Climbing FlightAware UK
Sun 10:13:28 AM 53.3250 -2.3360 230° Southwest 152 175 2,400 1,400 Climbing FlightAware ADS-B
Sun 10:13:55 AM 53.3184 -2.3724 230° Southwest 200 230 1,600 1,600 Descending FlightAware UK
Sun 10:13:58 AM 53.3190 -2.3730 230° Southwest 174 200 3,200 2,000 Climbing FlightAware ADS-B
Sun 10:14:13 AM 53.3245 -2.3957 230° Southwest 192 221 2,200 1,440 Descending FlightAware UK
Sun 10:14:23 AM 53.3280 -2.3990 230° Southwest 203 234 3,800 4,800 Climbing FlightAware ADS-B
Sun 10:14:38 AM 53.3440 -2.4120 334° Northwest 226 260 4,200 -1,421 Climbing FlightAware ADS-B
Sun 10:15:01 AM 53.3725 -2.4250 334° Northwest 238 274 2,900 800 Descending FlightAware UK
Sun 10:15:08 AM 53.3780 -2.4270 334° Northwest 253 291 4,600 800 Climbing FlightAware ADS-B
Sun 10:15:31 AM 53.4112 -2.4261 334° Northwest 264 304 3,300 1,029 Descending FlightAware UK
Sun 10:15:43 AM 53.4050 -2.4300 334° Northwest 317 365 5,200 2,200 Climbing FlightAware ADS-B
Sun 10:16:01 AM 53.4409 -2.3748 334° Northwest 272 313 4,400 1,886 Descending FlightAware UK
Sun 10:16:18 AM 53.4460 -2.3460 334° Northwest 308 354 6,300 4,143 Climbing FlightAware ADS-B
Sun 10:16:43 AM 53.4530 -2.2820 80° East 313 360 7,300 140 Climbing FlightAware ADS-B
Sun 10:17:01 AM 53.4588 -2.2328 80° East 276 318 6,400 1,886 Descending FlightAware UK
Sun 10:17:18 AM 53.4630 -2.2000 80° East 326 375 8,400 3,857 Climbing FlightAware ADS-B
Sun 10:17:43 AM 53.4680 -2.1380 82° East 327 376 9,100 480 Climbing FlightAware ADS-B
Sun 10:18:08 AM 53.4700 -2.0659 82° East 286 329 8,800 -140 Descending FlightAware UK
Sun 10:18:26 AM 53.4664 -2.0219 98° East 298 343 9,000 625 Climbing FlightAware UK
Sun 10:18:56 AM 53.4542 -1.9481 106° East 326 375 9,300 889 Climbing FlightAware UK
Sun 10:19:20 AM 53.4436 -1.8832 105° East 344 396 9,800 3,053 Climbing FlightAware UK
Sun 10:19:53 AM 53.4320 -1.8140 105° East 362 417 12,200 1,800 Climbing FlightAware ADS-B
Sun 10:20:20 AM 53.4164 -1.7203 105° East 354 407 11,600 1,733 Descending FlightAware UK
Sun 10:20:38 AM 53.4110 -1.6870 105° East 373 429 13,500 1,571 Climbing FlightAware ADS-B
Sun 10:21:02 AM 53.3964 -1.6029 105° East 362 417 12,700 1,714 Descending FlightAware UK
Sun 10:21:13 AM 53.3930 -1.5840 105° East 376 433 14,500 1,800 Climbing FlightAware ADS-B
Sun 10:21:32 AM 53.3815 -1.5176 105° East 366 421 13,600 -649 Descending FlightAware UK
Sun 10:21:50 AM 53.3726 -1.4665 106° East 366 421 14,100 4,846 Climbing FlightAware UK
Sun 10:21:58 AM 53.3710 -1.4590 106° East 384 442 15,700 1,400 Climbing FlightAware ADS-B
Sun 10:22:20 AM 53.3576 -1.3804 106° East 374 430 14,800 1,500 Descending FlightAware UK
Sun 10:22:38 AM 53.3520 -1.3450 106° East 391 450 16,700 1,625 Climbing FlightAware ADS-B
Sun 10:23:08 AM 53.3333 -1.2382 106° East 380 437 16,100 1,600 Descending FlightAware UK
Sun 10:23:23 AM 53.3290 -1.2130 106° East 397 457 17,900 1,800 Climbing FlightAware ADS-B
Sun 10:23:38 AM 53.3176 -1.1497 106° East 380 437 17,000 1,650 Descending FlightAware UK
Sun 10:24:03 AM 53.3060 -1.0860 106° East 407 468 19,000 1,250 Climbing FlightAware ADS-B
Sun 10:24:26 AM 53.2921 -1.0037 106° East 388 447 18,000 1,200 Descending FlightAware UK
Sun 10:24:48 AM 53.2830 -0.9530 106° East 420 483 19,900 5,250 Climbing FlightAware ADS-B
Sun 10:24:50 AM 53.2795 -0.9315 105° East 423 487 20,100 -3,000 Climbing FlightAware ADS-B
Sun 10:25:08 AM 53.2692 -0.8725 105° East 404 465 18,900 1,538 Descending FlightAware UK
Sun 10:25:29 AM 53.2591 -0.8122 105° East 427 491 21,100 1,622 Climbing FlightAware ADS-B
Sun 10:25:45 AM 53.2495 -0.7578 105° East 404 465 19,900 1,313 Descending FlightAware UK
Sun 10:26:01 AM 53.2406 -0.7056 105° East 429 494 21,800 1,333 Climbing FlightAware ADS-B
Sun 10:26:21 AM 53.2298 -0.6437 105° East 408 470 20,700 1,277 Descending FlightAware UK
Sun 10:26:48 AM 53.2160 -0.5630 105° East 435 501 22,800 3,805 Climbing FlightAware ADS-B
Sun 10:27:02 AM 53.2065 -0.5117 107° East 437 503 23,300 -909 Climbing FlightAware ADS-B
Sun 10:27:21 AM 53.1953 -0.4493 107° East 416 479 22,300 -973 Descending FlightAware UK
Sun 10:27:39 AM 53.1848 -0.3906 107° East 418 481 22,700 3,692 Climbing FlightAware UK
Sun 10:28:00 AM 53.1732 -0.3252 107° East 451 519 24,700 1,500 Climbing FlightAware ADS-B
Sun 10:28:15 AM 53.1634 -0.2707 107° East 424 488 23,600 1,500 Descending FlightAware UK
Sun 10:28:32 AM 53.1528 -0.2126 107° East 456 525 25,500 3,191 Climbing FlightAware ADS-B
Sun 10:29:02 AM 53.1340 -0.1109 107° East 463 533 26,100 1,304 Climbing FlightAware ADS-B
Sun 10:29:18 AM 53.1245 -0.0578 107° East 469 540 26,500 -1,742 Climbing FlightAware ADS-B
Sun 10:29:33 AM 53.1173 -0.0035 107° East 438 504 25,200 1,364 Descending FlightAware UK
Sun 10:29:40 AM 53.1148 0.0234 107° East 482 555 27,000 3,789 Climbing FlightAware ADS-B
Sun 10:30:11 AM 53.1048 0.1340 99° East 487 560 27,600 1,279 Climbing FlightAware ADS-B
Sun 10:30:41 AM 53.0946 0.2458 99° East 488 562 28,300 1,304 Climbing FlightAware ADS-B
Sun 10:31:20 AM 53.0816 0.3888 99° East 494 568 29,100 -375 Climbing FlightAware ADS-B
Sun 10:31:45 AM 53.0731 0.4877 99° East 454 522 27,900 977 Descending FlightAware UK
Sun 10:32:03 AM 53.0680 0.5470 99° East 500 575 29,800 4,345 Climbing FlightAware ADS-B
Sun 10:32:14 AM 53.0638 0.5961 98° East 501 577 30,000 -2,000 Climbing FlightAware ADS-B
Sun 10:32:33 AM 53.0572 0.6712 98° East 460 529 28,800 968 Descending FlightAware UK
Sun 10:32:45 AM 53.0533 0.7170 98° East 505 581 30,500 3,209 Climbing FlightAware ADS-B
Sun 10:33:16 AM 53.0430 0.8342 98° East 508 585 31,100 -857 Climbing FlightAware ADS-B
Sun 10:33:34 AM 53.0370 0.9024 98° East 464 534 29,800 938 Descending FlightAware UK
Sun 10:33:48 AM 53.0319 0.9584 98° East 512 589 31,600 1,000 Climbing FlightAware ADS-B
Sun 10:34:10 AM 53.0245 1.0418 98° East 470 541 30,400 1,000 Descending FlightAware UK
Sun 10:34:18 AM 53.0212 1.0756 98° East 513 590 32,100 800 Climbing FlightAware ADS-B
Sun 10:34:40 AM 53.0134 1.1594 98° East 474 545 30,800 800 Descending FlightAware UK
Sun 10:34:48 AM 53.0107 1.1890 98° East 515 593 32,500 1,250 Climbing FlightAware ADS-B
Sun 10:35:04 AM 53.0047 1.2533 98° East 468 539 31,300 -1,588 Descending FlightAware UK
Sun 10:35:22 AM 52.9981 1.3225 99° East 470 541 31,600 4,138 Climbing FlightAware UK
Sun 10:35:33 AM 52.9950 1.3510 99° East 509 586 33,300 6,333 Climbing FlightAware ADS-B
Sun 10:35:40 AM 52.9893 1.3915 103° East 507 583 33,500 -2,640 Climbing FlightAware ADS-B
Sun 10:35:58 AM 52.9807 1.4602 103° East 466 536 32,200 833 Descending FlightAware UK
Sun 10:36:16 AM 52.9721 1.5276 103° East 508 585 34,000 857 Climbing FlightAware ADS-B
Sun 10:36:40 AM 52.9601 1.6209 103° East 466 536 32,800 909 Descending FlightAware UK
Sun 10:36:49 AM 52.9556 1.6559 103° East 506 582 34,500 1,000 Climbing FlightAware ADS-B
Sun 10:37:04 AM 52.9483 1.7126 103° East 466 536 33,200 909 Descending FlightAware UK
Sun 10:37:22 AM 52.9399 1.7781 103° East 504 580 35,000 667 Climbing FlightAware ADS-B
Sun 10:37:40 AM 52.9306 1.8484 103° East 460 529 33,600 500 Descending FlightAware UK
Sun 10:37:58 AM 52.9220 1.9157 103° East 509 586 35,300 667 Climbing FlightAware ADS-B
Sun 10:38:34 AM 52.9040 2.0532 103° East 464 534 34,200 667 Descending FlightAware UK
Sun 10:38:43 AM 52.9010 2.0750 103° East 508 585 35,800 750 Climbing FlightAware ADS-B
Sun 10:38:58 AM 52.8920 2.1444 103° East 460 529 34,500 571 Descending FlightAware UK
Sun 10:39:25 AM 52.8785 2.2449 103° East 510 587 36,200 429 Climbing FlightAware ADS-B
Sun 10:39:40 AM 52.8706 2.3039 103° East 462 532 34,800 558 Descending FlightAware UK
Sun 10:40:08 AM 52.8580 2.4000 103° East 512 589 36,600 625 Climbing FlightAware ADS-B
Sun 10:40:28 AM 52.8460 2.4878 103° East 464 534 35,300 600 Descending FlightAware UK
Sun 10:40:48 AM 52.8370 2.5540 103° East 508 585 37,000 324 Climbing FlightAware ADS-B
Sun 10:41:05 AM 52.8271 2.6251 103° East 460 529 35,500 -2,647 Descending FlightAware UK
Sun 10:41:22 AM 52.8180 2.6924 103° East 458 527 35,500 3,214 Level FlightAware UK
Sun 10:41:33 AM 52.8150 2.7230 103° East 508 585 37,000 5,625 Climbing FlightAware ADS-B
Sun 10:41:38 AM 52.8118 2.7515 101° East 508 585 37,000 -3,462 Level FlightAware ADS-B
Sun 10:41:59 AM 52.8024 2.8299 101° East 458 527 35,500  Descending FlightAware UK
Sun 10:42:13 AM 52.7970 2.8770 101° East 505 581 37,000  Climbing FlightAware ADS-B
Sun 10:42:41 AM 52.7830 2.9885 101° East 458 527 35,500  Descending FlightAware UK
Sun 10:42:58 AM 52.7760 3.0460 101° East 510 587 37,000  Climbing FlightAware ADS-B
Sun 10:43:17 AM 52.7663 3.1252 101° East 460 529 35,500  Descending FlightAware UK
Sun 10:43:38 AM 52.7570 3.1940 101° East 511 588 37,000  Climbing FlightAware ADS-B
Sun 10:44:11 AM 52.7402 3.3312 101° East 460 529 35,500  Descending FlightAware UK
Sun 10:44:18 AM 52.7370 3.3530 101° East 511 588 37,000  Climbing FlightAware ADS-B
Sun 10:44:41 AM 52.7257 3.4456 101° East 456 525 35,500 -2,195 Descending FlightAware UK
Sun 10:44:59 AM 52.7166 3.5149 102° East 458 527 35,500 4,091 Level FlightAware UK
Sun 10:45:03 AM 52.7150 3.5240 102° East 510 587 37,000  Climbing FlightAware ADS-B
Sun 10:45:23 AM 52.7050 3.6064 102° East 458 527 35,500 -2,368 Descending FlightAware UK
Sun 10:45:41 AM 52.6960 3.6747 102° East 458 527 35,500  Level FlightAware UK
Sun 10:45:59 AM 52.6871 3.7430 102° East 456 525 35,500 4,091 Level FlightAware UK
Sun 10:46:03 AM 52.6860 3.7500 102° East 510 587 37,000  Climbing FlightAware ADS-B
Sun 10:46:23 AM 52.6751 3.8340 102° East 458 527 35,500 -2,368 Descending FlightAware UK
Sun 10:46:41 AM 52.6660 3.9022 102° East 458 527 35,500 3,000 Level FlightAware UK
Sun 10:46:53 AM 52.6620 3.9360 102° East 510 587 37,000 1,915 Climbing FlightAware ADS-B
Sun 10:47:28 AM 52.6430 4.0760 103° East 510 587 37,000  Level FlightAware ADS-B
Sun 10:48:13 AM 52.6210 4.2400 102° East 510 587 37,000 -1,139 Level FlightAware ADS-B
Sun 10:48:47 AM 52.6022 4.3785 102° East 458 527 35,500  Descending FlightAware UK
Sun 10:48:48 AM 52.6030 4.3730 102° East 509 586 37,000 2,195 Climbing FlightAware ADS-B
Sun 10:49:28 AM 52.5820 4.5240 103° East 509 586 37,000  Level FlightAware ADS-B
Sun 10:49:58 AM 52.5670 4.6340 103° East 509 586 37,000 -1,837 Level FlightAware ADS-B
Sun 10:50:17 AM 52.5560 4.7185 103° East 458 527 35,500  Descending FlightAware UK
Sun 10:50:48 AM 52.5410 4.8190 103° East 508 585 37,000  Climbing FlightAware ADS-B
Sun 10:51:05 AM 52.5298 4.8987 103° East 458 527 35,500  Descending FlightAware UK
Sun 10:51:18 AM 52.5250 4.9360 103° East 509 586 37,000 2,093 Climbing FlightAware ADS-B
Sun 10:51:48 AM 52.5080 5.0490 104° East 509 586 37,000 -1,915 Level FlightAware ADS-B
Sun 10:52:05 AM 52.4990 5.1247 104° East 458 527 35,500  Descending FlightAware UK
Sun 10:52:43 AM 52.4790 5.2540 104° East 512 589 37,000  Climbing FlightAware ADS-B
Sun 10:53:17 AM 52.4560 5.3941 104° East 458 527 35,500  Descending FlightAware UK
Sun 10:53:28 AM 52.4540 5.4270 104° East 512 589 37,000  Climbing FlightAware ADS-B
Sun 10:53:59 AM 52.4329 5.5523 104° East 460 529 35,500  Descending FlightAware UK
Sun 10:54:08 AM 52.4320 5.5780 104° East 511 588 37,000  Climbing FlightAware ADS-B
Sun 10:54:23 AM 52.4203 5.6429 104° East 460 529 35,500  Descending FlightAware UK
Sun 10:54:48 AM 52.4090 5.7290 104° East 510 587 37,000  Climbing FlightAware ADS-B
Sun 10:55:05 AM 52.3981 5.8018 104° East 460 529 35,500 -2,571 Descending FlightAware UK
Sun 10:55:23 AM 52.3885 5.8695 103° East 460 529 35,500 3,214 Level FlightAware UK
Sun 10:55:33 AM 52.3850 5.8930 103° East 509 586 37,000 1,636 Climbing FlightAware ADS-B
Sun 10:56:18 AM 52.3600 6.0580 104° East 509 586 37,000  Level FlightAware ADS-B
Sun 10:56:43 AM 52.3440 6.1600 104° East 509 586 37,000  Level FlightAware ADS-B
Sun 10:57:33 AM 52.3160 6.3420 104° East 509 586 37,000  Level FlightAware ADS-B
Sun 10:58:13 AM 52.2920 6.4940 104° East 508 585 37,000  Level FlightAware ADS-B
Sun 10:58:43 AM 52.2760 6.5960 104° East 508 585 37,000  Level FlightAware ADS-B
Sun 10:59:23 AM 52.2530 6.7450 104° East 510 587 37,000  Level FlightAware ADS-B
Sun 11:00:08 AM 52.2250 6.9170 105° East 512 589 37,000  Level FlightAware ADS-B
Sun 11:00:38 AM 52.2070 7.0310 104° East 513 590 37,000  Level FlightAware ADS-B
Sun 11:01:08 AM 52.1890 7.1410 105° East 515 593 37,000  Level FlightAware ADS-B
Sun 11:01:43 AM 52.1680 7.2730 104° East 515 593 37,000  Level FlightAware ADS-B
Sun 11:02:28 AM 52.1390 7.4460 105° East 514 592 37,000  Level FlightAware ADS-B
Sun 11:03:08 AM 52.1170 7.5800 105° East 512 589 37,000  Level FlightAware ADS-B
Sun 11:03:43 AM 52.0940 7.7180 105° East 512 589 37,000  Level FlightAware ADS-B
Sun 11:04:23 AM 52.0690 7.8640 106° East 511 588 37,000  Level FlightAware ADS-B
Sun 11:05:03 AM 52.0440 8.0090 106° East 509 586 37,000  Level FlightAware ADS-B
Sun 11:05:33 AM 52.0240 8.1300 105° East 509 586 37,000  Level FlightAware ADS-B
Sun 11:06:18 AM 51.9950 8.2920 106° East 510 587 37,000  Level FlightAware ADS-B
Sun 11:07:03 AM 51.9670 8.4570 105° East 512 589 37,000  Level FlightAware ADS-B
Sun 11:07:38 AM 51.9440 8.5870 106° East 513 590 37,000  Level FlightAware ADS-B
Sun 11:08:13 AM 51.9230 8.7050 106° East 514 592 37,000  Level FlightAware ADS-B
Sun 11:08:58 AM 51.8910 8.8820 106° East 515 593 37,000  Level FlightAware ADS-B
Sun 11:09:38 AM 51.8630 9.0380 106° East 515 593 37,000  Level FlightAware ADS-B
Sun 11:10:18 AM 51.8370 9.1830 106° East 517 595 37,000  Level FlightAware ADS-B
Sun 11:10:53 AM 51.8140 9.3090 106° East 518 596 37,000  Level FlightAware ADS-B
Sun 11:11:33 AM 51.7890 9.4410 107° East 518 596 37,000  Level FlightAware ADS-B
Sun 11:12:08 AM 51.7650 9.5740 106° East 516 594 37,000  Level FlightAware ADS-B
Sun 11:12:28 AM 51.7500 9.6510 107° East 516 594 37,000  Level FlightAware ADS-B
Sun 11:13:13 AM 51.7180 9.8240 107° East 514 592 37,000  Level FlightAware ADS-B
Sun 11:13:58 AM 51.6870 9.9840 107° East 513 590 37,000  Level FlightAware ADS-B
Sun 11:14:28 AM 51.6660 10.0960 107° East 510 587 37,000  Level FlightAware ADS-B
Sun 11:15:08 AM 51.6370 10.2440 107° East 510 587 37,000  Level FlightAware ADS-B
Sun 11:15:43 AM 51.6130 10.3680 107° East 510 587 37,000  Level FlightAware ADS-B
Sun 11:16:38 AM 51.5740 10.5680 107° East 512 589 37,000  Level FlightAware ADS-B
Sun 11:17:18 AM 51.5480 10.7020 107° East 37,000  Level FlightAware ADS-B
Sun 11:17:53 AM 51.5200 10.8430 108° East 511 588 37,000  Level FlightAware ADS-B
Sun 11:18:48 AM 51.4820 11.0310 108° East 508 585 37,000  Level FlightAware ADS-B
Sun 11:19:43 AM 51.4440 11.2210 108° East 509 586 37,000  Level FlightAware ADS-B
Sun 11:20:53 AM 51.3910 11.4770 108° East 511 588 37,000  Level FlightAware ADS-B
Sun 11:21:18 AM 51.3730 11.5650 108° East 512 589 37,000  Level FlightAware ADS-B
Sun 11:22:03 AM 51.3400 11.7260 108° East 515 593 37,000  Level FlightAware ADS-B
Sun 11:22:23 AM 51.3230 11.8030 109° East 515 593 37,000  Level FlightAware ADS-B
Sun 11:23:18 AM 51.2820 12.0000 108° East 513 590 37,000  Level FlightAware ADS-B
Sun 11:24:43 AM 51.2170 12.3070 109° East 515 593 37,000  Level FlightAware ADS-B
Sun 11:25:58 AM 51.1570 12.5750 110° East 521 600 37,000  Level FlightAware ADS-B
Sun 11:26:53 AM 51.0960 12.7630 117° Southeast 525 604 37,000  Level FlightAware ADS-B
Sun 11:28:18 AM 51.0000 13.0540 118° Southeast 524 603 37,000  Level FlightAware ADS-B
Sun 11:29:18 AM 50.9330 13.2530 118° Southeast 524 603 37,000  Level FlightAware ADS-B
Sun 11:29:38 AM 50.9090 13.3260 118° Southeast 521 600 37,000  Level FlightAware ADS-B
Sun 11:30:43 AM 50.8350 13.5430 118° Southeast 522 601 37,000  Level FlightAware ADS-B
Sun 11:31:53 AM 50.7550 13.7770 118° Southeast 522 601 37,000  Level FlightAware ADS-B
Sun 11:33:08 AM 50.6670 14.0310 119° Southeast 522 601 37,000  Level FlightAware ADS-B
Sun 11:34:13 AM 50.5920 14.2450 119° Southeast 522 601 37,000  Level FlightAware ADS-B
Sun 11:34:33 AM 50.5660 14.3180 119° Southeast 526 605 37,000  Level FlightAware ADS-B
Sun 11:36:33 AM 50.4290 14.7040 119° Southeast 526 605 37,000  Level FlightAware ADS-B
Sun 11:37:48 AM 50.3360 14.9630 119° Southeast 524 603 37,000  Level FlightAware ADS-B
Sun 11:39:03 AM 50.2450 15.2140 119° Southeast 523 602 37,000  Level FlightAware ADS-B
Sun 11:39:33 AM 50.2070 15.3180 120° Southeast 520 598 37,000  Level FlightAware ADS-B
Sun 11:39:58 AM 50.1800 15.3920 120° Southeast 519 597 37,000  Level FlightAware ADS-B
Sun 11:40:58 AM 50.1050 15.5950 120° Southeast 517 595 37,000  Level FlightAware ADS-B
Sun 11:41:38 AM 50.0550 15.7300 120° Southeast 517 595 37,000  Level FlightAware ADS-B
Sun 11:42:08 AM 50.0220 15.8180 120° Southeast 517 595 37,000  Level FlightAware ADS-B
Sun 11:42:48 AM 49.9730 15.9500 120° Southeast 517 595 37,000  Level FlightAware ADS-B
Sun 11:43:23 AM 49.9310 16.0610 120° Southeast 516 594 37,000  Level FlightAware ADS-B
Sun 11:43:48 AM 49.9010 16.1390 121° Southeast 514 592 37,000  Level FlightAware ADS-B
Sun 11:44:33 AM 49.8470 16.2830 120° Southeast 511 588 37,000  Level FlightAware ADS-B
Sun 11:45:38 AM 49.7680 16.4900 121° Southeast 512 589 37,000  Level FlightAware ADS-B
Sun 11:46:08 AM 49.7320 16.5840 121° Southeast 511 588 37,000  Level FlightAware ADS-B
Sun 11:46:53 AM 49.6790 16.7200 121° Southeast 509 586 37,000  Level FlightAware ADS-B
Sun 11:47:28 AM 49.6390 16.8250 120° Southeast 509 586 37,000  Level FlightAware ADS-B
Sun 11:48:03 AM 49.5940 16.9400 121° Southeast 509 586 37,000  Level FlightAware ADS-B
Sun 11:48:43 AM 49.5460 17.0630 121° Southeast 510 587 37,000  Level FlightAware ADS-B
Sun 11:49:18 AM 49.5020 17.1750 121° Southeast 510 587 37,000  Level FlightAware ADS-B
Sun 11:49:53 AM 49.4590 17.2830 121° Southeast 509 586 37,000  Level FlightAware ADS-B
Sun 11:50:38 AM 49.4060 17.4180 121° Southeast 507 583 37,000  Level FlightAware ADS-B
Sun 11:51:13 AM 49.3620 17.5280 122° Southeast 508 585 37,000  Level FlightAware ADS-B
Sun 11:51:48 AM 49.3210 17.6320 121° Southeast 508 585 37,000  Level FlightAware ADS-B
Sun 11:52:28 AM 49.2670 17.7640 122° Southeast 509 586 37,000  Level FlightAware ADS-B
Sun 11:53:18 AM 49.2130 17.9110 119° Southeast 505 581 37,000  Level FlightAware ADS-B
Sun 11:53:58 AM 49.1670 18.0390 119° Southeast 506 582 37,000  Level FlightAware ADS-B
Sun 11:54:38 AM 49.1220 18.1630 119° Southeast 507 583 37,000  Level FlightAware ADS-B
Sun 11:55:18 AM 49.0760 18.2890 119° Southeast 508 585 37,000  Level FlightAware ADS-B
Sun 11:56:08 AM 49.0200 18.4410 119° Southeast 507 583 37,000  Level FlightAware ADS-B
Sun 11:56:58 AM 48.9650 18.5900 119° Southeast 509 586 37,000  Level FlightAware ADS-B
Sun 11:57:28 AM 48.9270 18.6940 119° Southeast 511 588 37,000  Level FlightAware ADS-B
Sun 11:58:08 AM 48.8790 18.8220 120° Southeast 514 592 37,000  Level FlightAware ADS-B
Sun 11:58:43 AM 48.8370 18.9350 119° Southeast 517 595 37,000  Level FlightAware ADS-B
Sun 11:59:18 AM 48.7970 19.0420 120° Southeast 519 597 37,000  Level FlightAware ADS-B
Sun 11:59:53 AM 48.7540 19.1560 120° Southeast 519 597 37,000  Level FlightAware ADS-B
Sun 12:00:28 PM 48.7140 19.2610 120° Southeast 517 595 37,000  Level FlightAware ADS-B
Sun 12:00:58 PM 48.6780 19.3560 120° Southeast 517 595 37,000  Level FlightAware ADS-B
Sun 12:01:43 PM 48.6230 19.4980 120° Southeast 519 597 37,000  Level FlightAware ADS-B
Sun 12:02:13 PM 48.5870 19.5930 120° Southeast 521 600 37,000  Level FlightAware ADS-B
Sun 12:02:48 PM 48.5450 19.7020 120° Southeast 522 601 37,000  Level FlightAware ADS-B
Sun 12:03:23 PM 48.5050 19.8050 120° Southeast 523 602 37,000  Level FlightAware ADS-B
Sun 12:03:58 PM 48.4630 19.9140 120° Southeast 522 601 37,000  Level FlightAware ADS-B
Sun 12:04:43 PM 48.4060 20.0600 120° Southeast 514 592 37,000  Level FlightAware ADS-B
Sun 12:05:28 PM 48.3500 20.1980 121° Southeast 513 590 37,000  Level FlightAware ADS-B
Sun 12:06:03 PM 48.3050 20.3030 123° Southeast 509 586 37,000  Level FlightAware ADS-B
Sun 12:06:33 PM 48.2700 20.3870 122° Southeast 506 582 37,000  Level FlightAware ADS-B
Sun 12:07:23 PM 48.2040 20.5420 123° Southeast 509 586 37,000  Level FlightAware ADS-B
Sun 12:07:53 PM 48.1670 20.6300 122° Southeast 511 588 37,000  Level FlightAware ADS-B
Sun 12:08:28 PM 48.1210 20.7370 123° Southeast 513 590 37,000  Level FlightAware ADS-B
Sun 12:08:58 PM 48.0840 20.8230 123° Southeast 516 594 37,000  Level FlightAware ADS-B
Sun 12:10:03 PM 47.9990 21.0190 123° Southeast 514 592 37,000  Level FlightAware ADS-B
Sun 12:10:33 PM 47.9640 21.1000 123° Southeast 514 592 37,000  Level FlightAware ADS-B
Sun 12:11:18 PM 47.9010 21.2450 123° Southeast 514 592 37,000  Level FlightAware ADS-B
Sun 12:11:58 PM 47.8500 21.3620 123° Southeast 508 585 37,000  Level FlightAware ADS-B
Sun 12:12:48 PM 47.7860 21.5080 123° Southeast 510 587 37,000  Level FlightAware ADS-B
Sun 12:13:28 PM 47.7350 21.6240 123° Southeast 509 586 37,000  Level FlightAware ADS-B
Sun 12:14:13 PM 47.6760 21.7560 124° Southeast 508 585 37,000  Level FlightAware ADS-B
Sun 12:14:48 PM 47.6300 21.8600 123° Southeast 510 587 37,000  Level FlightAware ADS-B
Sun 12:15:18 PM 47.5950 21.9510 120° Southeast 502 578 37,000  Level FlightAware ADS-B
Sun 12:16:03 PM 47.5460 22.0800 119° Southeast 503 579 37,000  Level FlightAware ADS-B
Sun 12:16:48 PM 47.4920 22.2240 119° Southeast 501 577 37,000  Level FlightAware ADS-B
Sun 12:17:23 PM 47.4520 22.3270 120° Southeast 501 577 37,000  Level FlightAware ADS-B
Sun 12:18:03 PM 47.4050 22.4490 120° Southeast 500 575 37,000  Level FlightAware ADS-B
Sun 12:18:38 PM 47.3660 22.5500 120° Southeast 499 574 37,000  Level FlightAware ADS-B
Sun 12:19:13 PM 47.3300 22.6430 120° Southeast 499 574 37,000  Level FlightAware ADS-B
Sun 12:19:48 PM 47.2990 22.7240 119° Southeast 504 580 37,000  Level FlightAware ADS-B
Sun 12:20:23 PM 47.2490 22.8530 120° Southeast 501 577 37,000  Level FlightAware ADS-B
Sun 12:21:03 PM 47.2070 22.9590 120° Southeast 501 577 37,000  Level FlightAware ADS-B
Sun 12:21:38 PM 47.1610 23.0760 120° Southeast 501 577 37,000  Level FlightAware ADS-B
Sun 12:22:08 PM 47.1240 23.1700 120° Southeast 500 575 37,000  Level FlightAware ADS-B
Sun 12:22:48 PM 47.0770 23.2890 120° Southeast 497 572 37,000  Level FlightAware ADS-B
Sun 12:23:23 PM 47.0360 23.3900 121° Southeast 497 572 37,000  Level FlightAware ADS-B
Sun 12:23:58 PM 46.9950 23.4930 120° Southeast 498 573 37,000  Level FlightAware ADS-B
Sun 12:24:28 PM 46.9610 23.5770 121° Southeast 494 568 37,000  Level FlightAware ADS-B
Sun 12:25:08 PM 46.9150 23.6930 120° Southeast 497 572 37,000  Level FlightAware ADS-B
Sun 12:25:38 PM 46.8810 23.7770 121° Southeast 498 573 37,000  Level FlightAware ADS-B
Sun 12:26:13 PM 46.8380 23.8830 121° Southeast 499 574 37,000  Level FlightAware ADS-B
Sun 12:26:53 PM 46.7910 23.9990 121° Southeast 496 571 37,000  Level FlightAware ADS-B
Sun 12:27:28 PM 46.7520 24.0930 121° Southeast 495 570 37,000  Level FlightAware ADS-B
Sun 12:28:13 PM 46.6970 24.2260 121° Southeast 495 570 37,000  Level FlightAware ADS-B
Sun 12:28:48 PM 46.6600 24.3180 120° Southeast 495 570 37,000  Level FlightAware ADS-B
Sun 12:29:23 PM 46.6150 24.4260 121° Southeast 494 568 37,000  Level FlightAware ADS-B
Sun 12:29:48 PM 46.5870 24.4940 121° Southeast 495 570 37,000  Level FlightAware ADS-B
Sun 12:30:28 PM 46.5460 24.5930 121° Southeast 498 573 37,000  Level FlightAware ADS-B
Sun 12:30:58 PM 46.5100 24.6780 122° Southeast 496 571 37,000  Level FlightAware ADS-B
Sun 12:31:48 PM 46.4480 24.8260 121° Southeast 492 566 37,000  Level FlightAware ADS-B
Sun 12:32:28 PM 46.4000 24.9410 121° Southeast 493 567 37,000  Level FlightAware ADS-B
Sun 12:33:03 PM 46.3560 25.0450 121° Southeast 495 570 37,000  Level FlightAware ADS-B
Sun 12:33:43 PM 46.3060 25.1630 121° Southeast 495 570 37,000  Level FlightAware ADS-B
Sun 12:34:18 PM 46.2640 25.2600 122° Southeast 492 566 37,000  Level FlightAware ADS-B
Sun 12:35:28 PM 46.1830 25.4490 122° Southeast 494 568 37,000  Level FlightAware ADS-B
Sun 12:36:08 PM 46.1330 25.5650 122° Southeast 492 566 37,000  Level FlightAware ADS-B
Sun 12:36:48 PM 46.0900 25.6650 122° Southeast 492 566 37,000  Level FlightAware ADS-B
Sun 12:37:33 PM 46.0320 25.7990 122° Southeast 493 567 37,000  Level FlightAware ADS-B
Sun 12:38:18 PM 45.9770 25.9250 122° Southeast 496 571 37,000  Level FlightAware ADS-B
Sun 12:38:53 PM 45.9350 26.0210 122° Southeast 496 571 37,000  Level FlightAware ADS-B
Sun 12:39:28 PM 45.8900 26.1220 123° Southeast 493 567 37,000  Level FlightAware ADS-B
Sun 12:40:03 PM 45.8480 26.2180 122° Southeast 493 567 37,000  Level FlightAware ADS-B
Sun 12:40:38 PM 45.8050 26.3140 123° Southeast 492 566 37,000  Level FlightAware ADS-B
Sun 12:41:13 PM 45.7640 26.4070 122° Southeast 491 565 37,000  Level FlightAware ADS-B
Sun 12:41:48 PM 45.7200 26.5070 122° Southeast 491 565 37,000  Level FlightAware ADS-B
Sun 12:42:38 PM 45.6590 26.6420 123° Southeast 492 566 37,000  Level FlightAware ADS-B
Sun 12:43:08 PM 45.6250 26.7180 123° Southeast 490 564 37,000  Level FlightAware ADS-B
Sun 12:43:53 PM 45.5700 26.8400 123° Southeast 492 566 37,000  Level FlightAware ADS-B
Sun 12:44:28 PM 45.5260 26.9370 123° Southeast 490 564 37,000  Level FlightAware ADS-B
Sun 12:45:03 PM 45.4820 27.0350 123° Southeast 487 560 37,000  Level FlightAware ADS-B
Sun 12:45:38 PM 45.4390 27.1280 123° Southeast 486 559 37,000  Level FlightAware ADS-B
Sun 12:46:38 PM 45.3650 27.2910 123° Southeast 487 560 37,000  Level FlightAware ADS-B
Sun 12:47:13 PM 45.3230 27.3820 123° Southeast 489 563 37,000  Level FlightAware ADS-B
Sun 12:47:43 PM 45.2890 27.4570 123° Southeast 489 563 37,000  Level FlightAware ADS-B
Sun 12:48:23 PM 45.2440 27.5830 117° Southeast 488 562 37,000  Level FlightAware ADS-B
Sun 12:49:13 PM 45.1980 27.7210 115° Southeast 484 557 37,000  Level FlightAware ADS-B
Sun 12:49:53 PM 45.1590 27.8340 116° Southeast 483 556 37,000  Level FlightAware ADS-B
Sun 12:50:53 PM 45.1030 28.0000 115° Southeast 484 557 37,000  Level FlightAware ADS-B
Sun 12:51:23 PM 45.0770 28.0750 116° Southeast 486 559 37,000  Level FlightAware ADS-B
Sun 12:51:58 PM 45.0400 28.1870 115° Southeast 486 559 37,000  Level FlightAware ADS-B
Sun 12:52:33 PM 45.0040 28.2890 116° Southeast 484 557 37,000  Level FlightAware ADS-B
Sun 12:53:23 PM 44.9570 28.4260 116° Southeast 483 556 37,000  Level FlightAware ADS-B
Sun 12:54:13 PM 44.9080 28.5680 116° Southeast 484 557 37,000  Level FlightAware ADS-B
Sun 12:54:48 PM 44.8700 28.6740 117° Southeast 485 558 37,000  Level FlightAware ADS-B
Sun 12:55:33 PM 44.8250 28.8040 116° Southeast 484 557 37,000  Level FlightAware ADS-B
Sun 12:56:13 PM 44.7880 28.9090 116° Southeast 483 556 37,000  Level FlightAware ADS-B
Sun 12:56:53 PM 44.7470 29.0240 117° Southeast 483 556 37,000  Level FlightAware ADS-B
Sun 12:57:33 PM 44.7090 29.1320 116° Southeast 486 559 37,000  Level FlightAware ADS-B
Sun 12:58:18 PM 44.6630 29.2610 117° Southeast 486 559 37,000  Level FlightAware ADS-B
Sun 12:58:53 PM 44.6280 29.3580 117° Southeast 487 560 37,000  Level FlightAware ADS-B
Sun 12:59:43 PM 44.5770 29.5010 117° Southeast 485 558 37,000  Level FlightAware ADS-B
Sun 01:00:43 PM 44.5160 29.6690 117° Southeast 483 556 37,000  Level FlightAware ADS-B
Sun 01:01:18 PM 44.4820 29.7640 117° Southeast 484 557 37,000  Level FlightAware ADS-B
Sun 01:01:33 PM 44.4640 29.8130 117° Southeast 485 558 37,000  Level FlightAware ADS-B
Sun 01:02:23 PM 44.4150 29.9470 117° Southeast 487 560 37,000  Level FlightAware ADS-B
Sun 01:02:58 PM 44.3770 30.0510 117° Southeast 487 560 37,000  Level FlightAware ADS-B
Sun 01:03:43 PM 44.3320 30.1720 117° Southeast 485 558 37,000  Level FlightAware ADS-B
Sun 01:04:28 PM 44.2950 30.2720 117° Southeast 486 559 37,000  Level FlightAware ADS-B
Sun 01:05:08 PM 44.2410 30.4160 118° Southeast 483 556 37,000  Level FlightAware ADS-B
Sun 01:05:43 PM 44.2060 30.5110 117° Southeast 481 554 37,000  Level FlightAware ADS-B
Sun 01:06:28 PM 44.1570 30.6430 117° Southeast 481 554 37,000  Level FlightAware ADS-B
Sun 01:07:08 PM 44.1200 30.7400 118° Southeast 480 552 37,000  Level FlightAware ADS-B
Sun 01:07:38 PM 44.0870 30.8270 118° Southeast 480 552 37,000  Level FlightAware ADS-B
Sun 01:08:28 PM 44.0340 30.9680 118° Southeast 480 552 37,000  Level FlightAware ADS-B
Sun 01:09:08 PM 43.9970 31.0650 118° Southeast 477 549 37,000  Level FlightAware ADS-B
Sun 01:09:48 PM 43.9510 31.1840 118° Southeast 477 549 37,000  Level FlightAware ADS-B
Sun 01:10:33 PM 43.9060 31.3030 118° Southeast 480 552 37,000  Level FlightAware ADS-B
Sun 01:11:13 PM 43.8640 31.4100 119° Southeast 480 552 37,000  Level FlightAware ADS-B
Sun 01:11:58 PM 43.8150 31.5370 118° Southeast 479 551 37,000  Level FlightAware ADS-B
Sun 01:12:38 PM 43.7740 31.6420 118° Southeast 479 551 37,000  Level FlightAware ADS-B
Sun 01:13:18 PM 43.7320 31.7520 118° Southeast 480 552 37,000  Level FlightAware ADS-B
Sun 01:13:53 PM 43.6940 31.8480 119° Southeast 481 554 37,000  Level FlightAware ADS-B
Sun 01:14:28 PM 43.6570 31.9430 118° Southeast 480 552 37,000  Level FlightAware ADS-B
Sun 01:15:08 PM 43.6170 32.0440 119° Southeast 479 551 37,000  Level FlightAware ADS-B
Sun 01:15:53 PM 43.5700 32.1620 119° Southeast 477 549 37,000  Level FlightAware ADS-B
Sun 01:16:28 PM 43.5310 32.2590 119° Southeast 478 550 37,000  Level FlightAware ADS-B
Sun 01:16:58 PM 43.4980 32.3430 118° Southeast 479 551 37,000 343 Level FlightAware ADS-B
Sun 01:17:38 PM 43.4540 32.4530 119° Southeast 481 554 37,400 533 Climbing FlightAware ADS-B
Sun 01:18:28 PM 43.4000 32.5870 119° Southeast 484 557 37,800 494 Climbing FlightAware ADS-B
Sun 01:19:03 PM 43.3620 32.6820 119° Southeast 484 557 38,100 525 Climbing FlightAware ADS-B
Sun 01:19:48 PM 43.3140 32.8020 119° Southeast 485 558 38,500 525 Climbing FlightAware ADS-B
Sun 01:20:23 PM 43.2790 32.8870 119° Southeast 484 557 38,800 400 Climbing FlightAware ADS-B
Sun 01:21:03 PM 43.2360 32.9920 119° Southeast 485 558 39,000 141 Climbing FlightAware ADS-B
Sun 01:21:48 PM 43.1860 33.1140 119° Southeast 487 560 39,000  Level FlightAware ADS-B
Sun 01:22:28 PM 43.1400 33.2260 119° Southeast 487 560 39,000  Level FlightAware ADS-B
Sun 01:22:53 PM 43.1110 33.2980 119° Southeast 484 557 39,000  Level FlightAware ADS-B
Sun 01:23:43 PM 43.0550 33.4330 120° Southeast 487 560 39,000  Level FlightAware ADS-B
Sun 01:24:53 PM 42.9770 33.6200 120° Southeast 487 560 39,000  Level FlightAware ADS-B
Sun 01:25:33 PM 42.9320 33.7280 120° Southeast 486 559 39,000  Level FlightAware ADS-B
Sun 01:26:13 PM 42.8900 33.8280 120° Southeast 484 557 39,000  Level FlightAware ADS-B
Sun 01:26:43 PM 42.8540 33.9130 120° Southeast 485 558 39,000  Level FlightAware ADS-B
Sun 01:27:23 PM 42.8100 34.0170 120° Southeast 483 556 39,000  Level FlightAware ADS-B
Sun 01:27:58 PM 42.7640 34.1040 126° Southeast 478 550 39,000  Level FlightAware ADS-B
Sun 01:28:43 PM 42.7060 34.1910 132° Southeast 476 548 39,000  Level FlightAware ADS-B
Sun 01:29:23 PM 42.6540 34.2650 134° Southeast 476 548 39,000  Level FlightAware ADS-B
Sun 01:29:53 PM 42.6160 34.3210 133° Southeast 476 548 39,000  Level FlightAware ADS-B
Sun 01:30:23 PM 42.5780 34.3770 133° Southeast 476 548 39,000  Level FlightAware ADS-B
Sun 01:31:03 PM 42.5270 34.4510 133° Southeast 476 548 39,000  Level FlightAware ADS-B
Sun 01:31:53 PM 42.4630 34.5440 133° Southeast 476 548 39,000  Level FlightAware ADS-B
Sun 01:32:23 PM 42.4250 34.5990 133° Southeast 476 548 39,000  Level FlightAware ADS-B
Sun 01:33:03 PM 42.3740 34.6740 133° Southeast 476 548 39,000  Level FlightAware ADS-B
Sun 01:33:43 PM 42.3220 34.7480 134° Southeast 476 548 39,000  Level FlightAware ADS-B
Sun 01:34:13 PM 42.2840 34.8030 133° Southeast 476 548 39,000  Level FlightAware ADS-B
Sun 01:34:53 PM 42.2330 34.8770 133° Southeast 476 548 39,000  Level FlightAware ADS-B
Sun 01:35:33 PM 42.1820 34.9510 133° Southeast 476 548 39,000  Level FlightAware ADS-B
Sun 01:36:03 PM 42.1440 35.0070 132° Southeast 476 548 39,000  Level FlightAware ADS-B
Sun 01:36:33 PM 42.1050 35.0620 134° Southeast 476 548 39,000  Level FlightAware ADS-B
Sun 01:37:13 PM 42.0540 35.1360 133° Southeast 476 548 39,000  Level FlightAware ADS-B
Sun 01:37:53 PM 42.0030 35.2090 133° Southeast 476 548 39,000 -55 Level FlightAware ADS-B
Sun 01:40:00 PM 41.8222 35.4431 136° Southeast  Level Estimated
Sun 01:41:00 PM 41.7366 35.5533 136° Southeast  Level Estimated
Sun 01:42:00 PM 41.6509 35.6631 136° Southeast  Level Estimated
Sun 01:43:00 PM 41.5651 35.7727 136° Southeast  Level Estimated
Sun 01:44:00 PM 41.4792 35.8820 136° Southeast  Level Estimated
Sun 01:45:00 PM 41.3932 35.9909 136° Southeast  Level Estimated
Sun 01:46:00 PM 41.3071 36.0996 137° Southeast  Level Estimated
Sun 01:47:00 PM 41.2209 36.2080 137° Southeast  Level Estimated
Sun 01:48:00 PM 41.1346 36.3162 137° Southeast  Level Estimated
Sun 01:49:00 PM 41.0482 36.4240 137° Southeast  Level Estimated
Sun 01:50:00 PM 40.9617 36.5316 137° Southeast  Level Estimated
Sun 01:51:00 PM 40.8751 36.6388 137° Southeast  Level Estimated
Sun 01:52:00 PM 40.7884 36.7458 137° Southeast  Level Estimated
Sun 01:53:00 PM 40.7016 36.8525 137° Southeast  Level Estimated
Sun 01:54:00 PM 40.6147 36.9590 137° Southeast  Level Estimated
Sun 01:55:00 PM 40.5277 37.0651 137° Southeast  Level Estimated
Sun 01:56:00 PM 40.4406 37.1710 137° Southeast  Level Estimated
Sun 01:57:00 PM 40.3534 37.2766 137° Southeast  Level Estimated
Sun 01:58:00 PM 40.2661 37.3820 137° Southeast  Level Estimated
Sun 01:59:00 PM 40.1787 37.4870 137° Southeast  Level Estimated
Sun 02:00:00 PM 40.0913 37.5918 137° Southeast  Level Estimated
Sun 02:01:00 PM 40.0037 37.6964 138° Southeast  Level Estimated
Sun 02:02:00 PM 39.9160 37.8006 138° Southeast  Level Estimated
Sun 02:03:00 PM 39.8283 37.9046 138° Southeast  Level Estimated
Sun 02:04:00 PM 39.7404 38.0084 138° Southeast  Level Estimated
Sun 02:05:00 PM 39.6525 38.1118 138° Southeast  Level Estimated
Sun 02:06:00 PM 39.5644 38.2150 138° Southeast  Level Estimated
Sun 02:07:00 PM 39.4763 38.3180 138° Southeast  Level Estimated
Sun 02:08:00 PM 39.3881 38.4206 138° Southeast  Level Estimated
Sun 02:09:00 PM 39.2998 38.5230 138° Southeast  Level Estimated
Sun 02:10:00 PM 39.2114 38.6252 138° Southeast  Level Estimated
Sun 02:11:00 PM 39.1229 38.7271 138° Southeast  Level Estimated
Sun 02:12:00 PM 39.0343 38.8288 138° Southeast  Level Estimated
Sun 02:13:00 PM 38.9456 38.9301 138° Southeast  Level Estimated
Sun 02:13:28 PM 39.0630 40.6300 138° Southeast 505 581 37,000  Level FlightAware ADS-B
Sun 02:14:00 PM 38.8569 39.0313 138° Southeast  Level Estimated
Sun 02:14:03 PM 39.0220 40.7000 127° Southeast 505 581 37,000  Level FlightAware ADS-B
Sun 02:14:53 PM 38.9620 40.8020 127° Southeast 505 581 37,000  Level FlightAware ADS-B
Sun 02:15:43 PM 38.9020 40.9040 127° Southeast 505 581 37,000  Level FlightAware ADS-B
Sun 02:16:23 PM 38.8540 40.9850 127° Southeast 505 581 37,000  Level FlightAware ADS-B
Sun 02:17:03 PM 38.8060 41.0670 127° Southeast 505 581 37,000  Level FlightAware ADS-B
Sun 02:17:43 PM 38.7590 41.1480 127° Southeast 505 581 37,000  Level FlightAware ADS-B
Sun 02:18:13 PM 38.7230 41.2090 127° Southeast 505 581 37,000  Level FlightAware ADS-B
Sun 02:19:03 PM 38.6630 41.3110 127° Southeast 505 581 37,000  Level FlightAware ADS-B
Sun 02:19:33 PM 38.6270 41.3720 127° Southeast 505 581 37,000  Level FlightAware ADS-B
Sun 02:20:13 PM 38.5790 41.4530 127° Southeast 505 581 37,000  Level FlightAware ADS-B
Sun 02:20:43 PM 38.4450 41.6640 129° Southeast 511 588 37,000  Level FlightAware ADS-B
Sun 02:21:38 PM 38.3700 41.7920 127° Southeast 511 588 37,000  Level FlightAware ADS-B
Sun 02:22:18 PM 38.3140 41.8880 127° Southeast 511 588 37,000  Level FlightAware ADS-B
Sun 02:23:18 PM 38.2290 42.0350 126° Southeast 509 586 37,000  Level FlightAware ADS-B
Sun 02:24:18 PM 38.1450 42.1800 126° Southeast 509 586 37,000  Level FlightAware ADS-B
Sun 02:24:58 PM 38.0920 42.2690 127° Southeast 511 588 37,000  Level FlightAware ADS-B
Sun 02:25:28 PM 38.0420 42.3530 127° Southeast 511 588 37,000  Level FlightAware ADS-B
Sun 02:26:03 PM 37.9920 42.4360 127° Southeast 511 588 37,000  Level FlightAware ADS-B
Sun 02:26:43 PM 37.9360 42.5310 127° Southeast 511 588 37,000  Level FlightAware ADS-B
Sun 02:27:23 PM 37.8750 42.6320 127° Southeast 510 587 37,000  Level FlightAware ADS-B
Sun 02:27:58 PM 37.8320 42.6950 131° Southeast 509 586 37,000  Level FlightAware ADS-B
Sun 02:28:38 PM 37.7790 42.7720 131° Southeast 509 586 37,000  Level FlightAware ADS-B
Sun 02:29:08 PM 37.7400 42.8290 131° Southeast 509 586 37,000  Level FlightAware ADS-B
Sun 02:29:53 PM 37.6190 42.9230 148° Southeast 509 586 37,000  Level FlightAware ADS-B
Sun 02:30:43 PM 37.5270 43.0240 139° Southeast 509 586 37,000  Level FlightAware ADS-B
Sun 02:31:18 PM 37.4700 43.0860 139° Southeast 509 586 37,000  Level FlightAware ADS-B
Sun 02:31:58 PM 37.3990 43.1630 139° Southeast 507 583 37,000  Level FlightAware ADS-B
Sun 02:32:33 PM 37.3400 43.2270 139° Southeast 507 583 37,000  Level FlightAware ADS-B
Sun 02:33:23 PM 37.2650 43.3100 139° Southeast 507 583 37,000  Level FlightAware ADS-B
Sun 02:34:03 PM 37.2050 43.3750 139° Southeast 507 583 37,000  Level FlightAware ADS-B
Sun 02:34:43 PM 37.1450 43.4410 139° Southeast 507 583 37,000  Level FlightAware ADS-B
Sun 02:35:13 PM 37.1000 43.4900 139° Southeast 507 583 37,000  Level FlightAware ADS-B
Sun 02:35:43 PM 37.0550 43.5390 139° Southeast 507 583 37,000  Level FlightAware ADS-B
Sun 02:36:33 PM 36.9790 43.6210 139° Southeast 507 583 37,000  Level FlightAware ADS-B
Sun 02:37:13 PM 36.9190 43.6870 139° Southeast 507 583 37,000  Level FlightAware ADS-B
Sun 02:37:43 PM 36.8740 43.7360 139° Southeast 507 583 37,000  Level FlightAware ADS-B
Sun 02:38:23 PM 36.8140 43.8010 139° Southeast 507 583 37,000  Level FlightAware ADS-B
Sun 02:39:03 PM 36.7540 43.8660 139° Southeast 507 583 37,000  Level FlightAware ADS-B
Sun 02:39:33 PM 36.7080 43.9150 139° Southeast 507 583 37,000  Level FlightAware ADS-B
Sun 02:40:13 PM 36.6480 43.9810 139° Southeast 507 583 37,000  Level FlightAware ADS-B
Sun 02:40:53 PM 36.5880 44.0460 139° Southeast 507 583 37,000  Level FlightAware ADS-B
Sun 02:41:33 PM 36.5280 44.1110 139° Southeast 507 583 37,000 45 Level FlightAware ADS-B
Sun 02:44:00 PM 36.2803 44.2998 148° Southeast  Level Estimated
Sun 02:45:00 PM 36.1791 44.3765 149° Southeast  Level Estimated
Sun 02:46:00 PM 36.0778 44.4531 149° Southeast  Level Estimated
Sun 02:47:00 PM 35.9765 44.5294 149° Southeast  Level Estimated
Sun 02:48:00 PM 35.8752 44.6055 149° Southeast  Level Estimated
Sun 02:49:00 PM 35.7738 44.6815 149° Southeast  Level Estimated
Sun 02:50:00 PM 35.6724 44.7572 149° Southeast  Level Estimated
Sun 02:51:00 PM 35.5709 44.8328 149° Southeast  Level Estimated
Sun 02:52:00 PM 35.4693 44.9081 149° Southeast  Level Estimated
Sun 02:53:00 PM 35.3677 44.9833 149° Southeast  Level Estimated
Sun 02:54:00 PM 35.2661 45.0583 149° Southeast  Level Estimated
Sun 02:55:00 PM 35.1645 45.1331 149° Southeast  Level Estimated
Sun 02:56:00 PM 35.0627 45.2077 149° Southeast  Level Estimated
Sun 02:57:00 PM 34.9610 45.2821 149° Southeast  Level Estimated
Sun 02:58:00 PM 34.8592 45.3564 149° Southeast  Level Estimated
Sun 02:59:00 PM 34.7573 45.4304 149° Southeast  Level Estimated
Sun 03:00:00 PM 34.6554 45.5043 149° Southeast  Level Estimated
Sun 03:01:00 PM 34.5535 45.5780 149° Southeast  Level Estimated
Sun 03:02:00 PM 34.4515 45.6515 149° Southeast  Level Estimated
Sun 03:03:00 PM 34.3494 45.7248 149° Southeast  Level Estimated
Sun 03:04:00 PM 34.2474 45.7980 149° Southeast  Level Estimated
Sun 03:05:00 PM 34.1452 45.8709 149° Southeast  Level Estimated
Sun 03:06:00 PM 34.0431 45.9437 149° Southeast  Level Estimated
Sun 03:07:00 PM 33.9409 46.0164 149° Southeast  Level Estimated
Sun 03:08:00 PM 33.8386 46.0888 150° Southeast  Level Estimated
Sun 03:09:00 PM 33.7364 46.1611 150° Southeast  Level Estimated
Sun 03:10:00 PM 33.6340 46.2332 150° Southeast  Level Estimated
Sun 03:11:00 PM 33.5317 46.3051 150° Southeast  Level Estimated
Sun 03:12:00 PM 33.4292 46.3769 150° Southeast  Level Estimated
Sun 03:13:00 PM 33.3268 46.4485 150° Southeast  Level Estimated
Sun 03:14:00 PM 33.2243 46.5199 150° Southeast  Level Estimated
Sun 03:15:00 PM 33.1217 46.5912 150° Southeast  Level Estimated
Sun 03:16:00 PM 33.0192 46.6623 150° Southeast  Level Estimated
Sun 03:17:00 PM 32.9165 46.7332 150° Southeast  Level Estimated
Sun 03:18:00 PM 32.8139 46.8040 150° Southeast  Level Estimated
Sun 03:19:00 PM 32.7112 46.8745 150° Southeast  Level Estimated
Sun 03:20:00 PM 32.6084 46.9450 150° Southeast  Level Estimated
Sun 03:21:00 PM 32.5057 47.0153 150° Southeast  Level Estimated
Sun 03:22:00 PM 32.4028 47.0854 150° Southeast  Level Estimated
Sun 03:23:00 PM 32.3000 47.1553 150° Southeast  Level Estimated
Sun 03:24:00 PM 32.1971 47.2252 150° Southeast  Level Estimated
Sun 03:25:00 PM 32.0942 47.2948 150° Southeast  Level Estimated
Sun 03:25:38 PM 30.8830 47.4540 150° Southeast 506 582 39,000  Level FlightAware ADS-B
Sun 03:26:00 PM 31.9912 47.3643 150° Southeast  Level Estimated
Sun 03:26:28 PM 30.7930 47.5480 138° Southeast 507 583 39,000  Level FlightAware ADS-B
Sun 03:27:23 PM 30.7010 47.6440 138° Southeast 509 586 39,000  Level FlightAware ADS-B
Sun 03:28:18 PM 30.6110 47.7380 138° Southeast 507 583 39,000  Level FlightAware ADS-B
Sun 03:29:03 PM 30.5310 47.8210 138° Southeast 505 581 39,000  Level FlightAware ADS-B
Sun 03:29:43 PM 30.4550 47.8990 138° Southeast 507 583 39,000  Level FlightAware ADS-B
Sun 03:30:23 PM 30.3890 47.9690 138° Southeast 506 582 39,000  Level FlightAware ADS-B
Sun 03:31:03 PM 30.3200 48.0400 138° Southeast 504 580 39,000  Level FlightAware ADS-B
Sun 03:31:48 PM 30.2470 48.1150 138° Southeast 502 578 39,000  Level FlightAware ADS-B
Sun 03:32:28 PM 30.1880 48.1760 138° Southeast 502 578 39,000  Level FlightAware ADS-B
Sun 03:33:08 PM 30.1300 48.2370 138° Southeast 502 578 39,000  Level FlightAware ADS-B
Sun 03:33:58 PM 30.0000 48.3040 156° South 483 556 39,000  Level FlightAware ADS-B
Sun 03:34:38 PM 29.9210 48.3560 150° Southeast 482 555 39,000  Level FlightAware ADS-B
Sun 03:35:18 PM 29.8440 48.4070 150° Southeast 478 550 39,000  Level FlightAware ADS-B
Sun 03:35:53 PM 29.7730 48.4540 150° Southeast 476 548 39,000  Level FlightAware ADS-B
Sun 03:36:58 PM 29.6450 48.5370 151° Southeast 480 552 39,000  Level FlightAware ADS-B
Sun 03:37:33 PM 29.5800 48.5790 151° Southeast 481 554 39,000  Level FlightAware ADS-B
Sun 03:38:23 PM 29.4770 48.6460 150° Southeast 481 554 39,000  Level FlightAware ADS-B
Sun 03:38:58 PM 29.4220 48.6820 150° Southeast 482 555 39,000  Level FlightAware ADS-B
Sun 03:39:48 PM 29.3190 48.7480 151° Southeast 489 563 39,000  Level FlightAware ADS-B
Sun 03:40:28 PM 29.2520 48.7910 151° Southeast 490 564 39,000  Level FlightAware ADS-B
Sun 03:41:13 PM 29.1700 48.8450 150° Southeast 490 564 39,000  Level FlightAware ADS-B
Sun 03:41:53 PM 29.0860 48.8980 151° Southeast 487 560 39,000  Level FlightAware ADS-B
Sun 03:42:33 PM 29.0120 48.9460 150° Southeast 487 560 39,000  Level FlightAware ADS-B
Sun 03:43:18 PM 28.9160 49.0070 151° Southeast 486 559 39,000  Level FlightAware ADS-B
Sun 03:44:03 PM 28.8230 49.0660 151° Southeast 484 557 39,000  Level FlightAware ADS-B
Sun 03:44:38 PM 28.7590 49.1070 151° Southeast 484 557 39,000  Level FlightAware ADS-B
Sun 03:45:18 PM 28.6710 49.1620 151° Southeast 484 557 39,000  Level FlightAware ADS-B
Sun 03:45:58 PM 28.5910 49.2140 150° Southeast 484 557 39,000  Level FlightAware ADS-B
Sun 03:46:48 PM 28.4940 49.2760 151° Southeast 484 557 39,000  Level FlightAware ADS-B
Sun 03:47:33 PM 28.4060 49.3310 151° Southeast 484 557 39,000  Level FlightAware ADS-B
Sun 03:48:13 PM 28.3270 49.3800 151° Southeast 484 557 39,000  Level FlightAware ADS-B
Sun 03:48:48 PM 28.2680 49.4190 150° Southeast 484 557 39,000  Level FlightAware ADS-B
Sun 03:49:33 PM 28.1760 49.4750 152° Southeast 493 567 39,000  Level FlightAware ADS-B
Sun 03:50:18 PM 28.0800 49.5400 149° Southeast 500 575 39,000  Level FlightAware ADS-B
Sun 03:50:53 PM 28.0170 49.5910 144° Southeast 507 583 39,000  Level FlightAware ADS-B
Sun 03:51:58 PM 27.8930 49.6920 144° Southeast 499 574 39,000  Level FlightAware ADS-B
Sun 03:52:38 PM 27.8120 49.7580 144° Southeast 500 575 39,000  Level FlightAware ADS-B
Sun 03:53:23 PM 27.7380 49.8190 144° Southeast 500 575 39,000  Level FlightAware ADS-B
Sun 03:54:03 PM 27.6750 49.8710 144° Southeast 500 575 39,000  Level FlightAware ADS-B
Sun 03:54:43 PM 27.6110 49.9230 144° Southeast 500 575 39,000  Level FlightAware ADS-B
Sun 03:55:23 PM 27.5470 49.9750 144° Southeast 500 575 39,000  Level FlightAware ADS-B
Sun 03:56:03 PM 27.4840 50.0270 144° Southeast 500 575 39,000  Level FlightAware ADS-B
Sun 03:56:53 PM 27.4040 50.0920 144° Southeast 500 575 39,000  Level FlightAware ADS-B
Sun 03:57:33 PM 27.3410 50.1440 144° Southeast 500 575 39,000  Level FlightAware ADS-B
Sun 03:58:13 PM 27.2770 50.1960 144° Southeast 500 575 39,000  Level FlightAware ADS-B
Sun 03:58:53 PM 27.2130 50.2480 144° Southeast 500 575 39,000  Level FlightAware ADS-B
Sun 03:59:33 PM 27.1500 50.3000 144° Southeast 500 575 39,000  Level FlightAware ADS-B
Sun 04:00:13 PM 27.0860 50.3520 144° Southeast 500 575 39,000  Level FlightAware ADS-B
Sun 04:00:53 PM 27.0220 50.4040 144° Southeast 500 575 39,000  Level FlightAware ADS-B
Sun 04:01:33 PM 26.9590 50.4560 144° Southeast 500 575 39,000 -6,000 Level FlightAware ADS-B
Sun 04:02:18 PM 26.6810 50.6240 152° Southeast 29,400 -10,000 Descending FlightAware ADS-B
Sun 04:02:33 PM 26.6580 50.6520 133° Southeast 484 557 29,000 -1,694 Descending FlightAware ADS-B
Sun 04:03:43 PM 26.5610 50.7920 128° Southeast 462 532 27,000 -1,670 Descending FlightAware ADS-B
Sun 04:04:28 PM 26.5010 50.8790 128° Southeast 454 522 25,800 -1,341 Descending FlightAware ADS-B
Sun 04:05:08 PM 26.4500 50.9520 128° Southeast 447 514 25,100 -600 Descending FlightAware ADS-B
Sun 04:05:48 PM 26.3990 51.0260 128° Southeast 449 517 25,000 -71 Descending FlightAware ADS-B
Sun 04:06:33 PM 26.3430 51.1060 128° Southeast 450 518 25,000  Level FlightAware ADS-B
Sun 04:07:28 PM 26.2720 51.2080 128° Southeast 449 517 25,000  Level FlightAware ADS-B
Sun 04:08:08 PM 26.2200 51.2830 128° Southeast 452 520 25,000 -141 Level FlightAware ADS-B
Sun 04:08:53 PM 26.1630 51.3660 127° Southeast 453 521 24,800 -417 Descending FlightAware ADS-B
Sun 04:10:03 PM 26.0990 51.5070 117° Southeast 433 498 24,200 -277 Descending FlightAware ADS-B
Sun 04:12:00 PM 25.8681 51.5231 176° South  Level Estimated
Sun 04:12:08 PM 26.0000 51.7270 176° South 340 391 23,900  Level FlightAware ADS-B
Sun 04:12:18 PM 25.9870 51.7400 138° Southeast 327 376 23,800 -514 Descending FlightAware ADS-B
Sun 04:13:18 PM 25.9030 51.7610 167° South 309 356 23,300 -369 Descending FlightAware ADS-B
Sun 04:14:28 PM 25.8030 51.7740 173° South 307 353 23,000 -129 Descending FlightAware ADS-B
Sun 04:15:38 PM 25.7100 51.7860 173° South 306 352 23,000  Level FlightAware ADS-B
Sun 04:16:48 PM 25.6060 51.7990 174° South 306 352 23,000 -129 Level FlightAware ADS-B
Sun 04:17:58 PM 25.5060 51.8120 173° South 305 351 22,700 -387 Descending FlightAware ADS-B
Sun 04:19:23 PM 25.4080 51.8720 151° Southeast 338 389 22,000 -365 Descending FlightAware ADS-B
Sun 04:19:53 PM 25.4170 51.9240 79° East 337 388 22,000  Level FlightAware ADS-B
Sun 04:20:33 PM 25.4620 51.9730 45° Northeast 329 379 22,000  Level FlightAware ADS-B
Sun 04:20:48 PM 25.4810 51.9860 32° Northeast 325 374 22,000  Level FlightAware ADS-B
Sun 04:21:28 PM 25.5350 51.9830 357° North 289 333 22,000  Level FlightAware ADS-B
Sun 04:21:43 PM 25.5520 51.9690 323° Northwest 277 319 22,000  Level FlightAware ADS-B
Sun 04:22:13 PM 25.5670 51.9340 295° West 262 302 22,000  Level FlightAware ADS-B
Sun 04:22:38 PM 25.5640 51.9000 264° West 255 293 22,000  Level FlightAware ADS-B
Sun 04:22:53 PM 25.5560 51.8820 244° Southwest 255 293 22,000  Level FlightAware ADS-B
Sun 04:23:28 PM 25.5260 51.8490 225° Southwest 262 302 22,000 -320 Level FlightAware ADS-B
Sun 04:24:08 PM 25.4920 51.8150 222° Southwest 263 303 21,600 -764 Descending FlightAware ADS-B
Sun 04:24:23 PM 25.4740 51.8030 211° Southwest 270 311 21,300 -1,200 Descending FlightAware ADS-B
Sun 04:24:38 PM 25.4550 51.7980 193° South 274 315 21,000 -933 Descending FlightAware ADS-B
Sun 04:25:08 PM 25.4180 51.8100 164° South 303 349 20,600 -900 Descending FlightAware ADS-B
Sun 04:25:18 PM 25.4060 51.8240 133° Southeast 308 354 20,400 -1,200 Descending FlightAware ADS-B
Sun 04:25:33 PM 25.3980 51.8440 114° Southeast 317 365 20,100 -1,067 Descending FlightAware ADS-B
Sun 04:26:03 PM 25.4040 51.8920 82° East 313 360 19,600 -933 Descending FlightAware ADS-B
Sun 04:26:18 PM 25.4190 51.9100 47° Northeast 309 356 19,400 -982 Descending FlightAware ADS-B
Sun 04:26:58 PM 25.4620 51.9540 43° Northeast 307 353 18,700 -1,029 Descending FlightAware ADS-B
Sun 04:27:28 PM 25.4970 51.9760 30° Northeast 281 323 18,200 -982 Descending FlightAware ADS-B
Sun 04:27:53 PM 25.5320 51.9700 351° North 269 310 17,800 -1,050 Descending FlightAware ADS-B
Sun 04:28:08 PM 25.5470 51.9580 324° Northwest 262 302 17,500 -1,000 Descending FlightAware ADS-B
Sun 04:28:23 PM 25.5570 51.9410 303° West 254 292 17,300 -800 Descending FlightAware ADS-B
Sun 04:28:38 PM 25.5620 51.9230 287° West 245 282 17,100 -720 Descending FlightAware ADS-B
Sun 04:29:13 PM 25.5570 51.8870 261° West 245 282 16,700 -873 Descending FlightAware ADS-B
Sun 04:29:33 PM 25.5390 51.8630 230° Southwest 248 285 16,300 -700 Descending FlightAware ADS-B
Sun 04:30:13 PM 25.5040 51.8270 223° Southwest 243 280 16,000 -257 Descending FlightAware ADS-B
Sun 04:30:43 PM 25.4760 51.8040 217° Southwest 262 302 16,000 -267 Level FlightAware ADS-B
Sun 04:30:58 PM 25.4580 51.8000 191° South 277 319 15,800 -1,029 Descending FlightAware ADS-B
Sun 04:31:18 PM 25.4310 51.8100 162° South 291 335 15,400 -1,050 Descending FlightAware ADS-B
Sun 04:31:38 PM 25.4160 51.8340 125° Southeast 304 350 15,100 -800 Descending FlightAware ADS-B
Sun 04:31:48 PM 25.4130 51.8480 103° East 302 348 15,000 -1,000 Descending FlightAware ADS-B
Sun 04:32:08 PM 25.4190 51.8770 77° East 291 335 14,600 -1,000 Descending FlightAware ADS-B
Sun 04:32:18 PM 25.4280 51.8890 50° Northeast 278 320 14,500 -900 Descending FlightAware ADS-B
Sun 04:32:48 PM 25.4570 51.9190 43° Northeast 281 323 14,000 -1,029 Descending FlightAware ADS-B
Sun 04:33:28 PM 25.4990 51.9530 36° Northeast 271 312 13,300 -1,029 Descending FlightAware ADS-B
Sun 04:33:58 PM 25.5330 51.9490 354° North 253 291 12,800 -933 Descending FlightAware ADS-B
Sun 04:34:13 PM 25.5470 51.9360 320° Northwest 245 282 12,600 -1,000 Descending FlightAware ADS-B
Sun 04:34:28 PM 25.5550 51.9200 299° West 240 276 12,300 -960 Descending FlightAware ADS-B
Sun 04:34:38 PM 25.5570 51.9090 281° West 237 273 12,200 -1,050 Descending FlightAware ADS-B
Sun 04:35:08 PM 25.5480 51.8740 254° West 237 273 11,600 -1,067 Descending FlightAware ADS-B
Sun 04:35:23 PM 25.5370 51.8610 227° Southwest 238 274 11,400 -545 Descending FlightAware ADS-B
Sun 04:36:03 PM 25.5040 51.8270 223° Southwest 239 275 11,100 -212 Descending FlightAware ADS-B
Sun 04:36:48 PM 25.4620 51.8060 204° Southwest 241 277 11,100  Level FlightAware ADS-B
Sun 04:37:28 PM 25.4160 51.8060 180° South 241 277 11,100  Level FlightAware ADS-B
Sun 04:38:08 PM 25.3670 51.8080 178° South 241 277 11,100  Level FlightAware ADS-B
Sun 04:38:53 PM 25.3150 51.8090 179° South 243 280 11,100 -141 Level FlightAware ADS-B
Sun 04:39:33 PM 25.2700 51.8010 189° South 242 278 10,900 -480 Descending FlightAware ADS-B
Sun 04:39:43 PM 25.2630 51.7930 226° Southwest 238 274 10,700 -1,000 Descending FlightAware ADS-B
Sun 04:40:03 PM 25.2560 51.7700 251° West 237 273 10,400 -982 Descending FlightAware ADS-B
Sun 04:40:38 PM 25.2730 51.7330 297° West 249 287 9,800 -1,040 Descending FlightAware ADS-B
Sun 04:41:18 PM 25.3170 51.7170 342° North 251 289 9,100 -1,029 Descending FlightAware ADS-B
Sun 04:41:48 PM 25.3510 51.7070 345° North 252 290 8,600 -933 Descending FlightAware ADS-B
Sun 04:42:03 PM 25.3680 51.7020 345° North 254 292 8,400 -982 Descending FlightAware ADS-B
Sun 04:42:43 PM 25.4140 51.6890 346° North 253 291 7,700 -1,015 Descending FlightAware ADS-B
Sun 04:43:08 PM 25.4430 51.6810 346° North 252 290 7,300 -1,029 Descending FlightAware ADS-B
Sun 04:43:18 PM 25.4530 51.6740 328° Northwest 238 274 7,100 -400 Descending FlightAware ADS-B
Sun 04:43:38 PM 25.4620 51.6540 296° West 223 257 7,100  Level FlightAware ADS-B
Sun 04:44:03 PM 25.4660 51.6290 280° West 223 257 7,100  Level FlightAware ADS-B
Sun 04:44:18 PM 25.4530 51.6100 233° Southwest 224 258 7,100  Level FlightAware ADS-B
Sun 04:44:48 PM 25.4440 51.5770 253° West 224 258 7,100  Level FlightAware ADS-B
Sun 04:45:18 PM 25.4350 51.5430 254° West 224 258 7,100  Level FlightAware ADS-B
Sun 04:45:33 PM 25.4300 51.5270 251° West 224 258 7,100 -300 Level FlightAware ADS-B
Sun 04:45:58 PM 25.4230 51.5000 254° West 224 258 6,900 -480 Descending FlightAware ADS-B
Sun 04:46:23 PM 25.4150 51.4720 252° West 223 257 6,700 -545 Descending FlightAware ADS-B
Sun 04:46:53 PM 25.4060 51.4390 253° West 222 255 6,400 -400 Descending FlightAware ADS-B
Sun 04:49:00 PM 25.2611 51.5651 142° Southeast  Level Estimated
Sun 04:49:38 PM 25.4690 51.3100 142° Southeast 242 278 5,400  Level FlightAware ADS-B
Sun 04:49:53 PM 25.4840 51.3040 340° North 239 275 5,300 -400 Descending FlightAware ADS-B
Sun 04:50:23 PM 25.5160 51.2910 340° North 238 274 5,100 -400 Descending FlightAware ADS-B
Sun 04:50:53 PM 25.5460 51.2790 340° North 223 257 4,900 -480 Descending FlightAware ADS-B
Sun 04:51:13 PM 25.5660 51.2740 347° North 223 257 4,700 -545 Descending FlightAware ADS-B
Sun 04:51:48 PM 25.5910 51.3000 43° Northeast 216 249 4,400 -500 Descending FlightAware ADS-B
Sun 04:52:13 PM 25.5830 51.3230 111° Southeast 208 239 4,200 -436 Descending FlightAware ADS-B
Sun 04:52:43 PM 25.5630 51.3470 133° Southeast 201 231 4,000 -400 Descending FlightAware ADS-B
Sun 04:53:13 PM 25.5440 51.3700 132° Southeast 195 224 3,800 -327 Descending FlightAware ADS-B
Sun 04:53:38 PM 25.5270 51.3900 133° Southeast 201 231 3,700 -327 Descending FlightAware ADS-B
Sun 04:54:08 PM 25.5070 51.4140 133° Southeast 195 224 3,500 -327 Descending FlightAware ADS-B
Sun 04:54:33 PM 25.4920 51.4320 133° Southeast 201 231 3,400 -300 Descending FlightAware ADS-B
Sun 04:54:48 PM 25.4820 51.4440 133° Southeast 194 223 3,300 -400 Descending FlightAware ADS-B
Sun 04:55:18 PM 25.4640 51.4650 134° Southeast 180 207 3,100 -267 Descending FlightAware ADS-B
Sun 04:55:33 PM 25.4550 51.4760 132° Southeast 174 200 3,100 -150 Level FlightAware ADS-B
Sun 04:55:58 PM 25.4380 51.4870 150° Southeast 162 186 3,000 -327 Descending FlightAware ADS-B
Sun 04:56:28 PM 25.4170 51.4960 159° South 161 185 2,800 -327 Descending FlightAware ADS-B
Sun 04:56:53 PM 25.3980 51.5050 157° South 161 185 2,700 -327 Descending FlightAware ADS-B
Sun 04:57:23 PM 25.3760 51.5140 160° South 161 185 2,500 -533 Descending FlightAware ADS-B
Sun 04:57:38 PM 25.3660 51.5190 156° South 157 181 2,300 -1,050 Descending FlightAware ADS-B
Sun 04:58:03 PM 25.3480 51.5270 158° South 144 166 1,800 -982 Descending FlightAware ADS-B
Sun 04:58:33 PM 25.3300 51.5350 158° South 125 144 1,400 -700 Descending FlightAware ADS-B
Sun 04:59:03 PM 25.3130 51.5420 160° South 123 142 1,100 -655 Descending FlightAware ADS-B
Sun 04:59:28 PM 25.2990 51.5490 156° South 122 140 800 -764 Descending FlightAware ADS-B
Sun 04:59:58 PM 25.2820 51.5560 160° South 122 140 400 -514 Descending FlightAware ADS-B
Sun 05:00:38 PM 25.2620 51.5660 156° South 122 140 200 -300 Descending FlightAware ADS-B
Sun 05:03:00 PM 25.2611 51.5651 224° Southwest  Level Estimated
Sun 05:04:00 PM 25.2611 51.5651 216° Southwest  Level Estimated
Sun 05:05:00 PM 25.2611 51.5651 216° Southwest  Level Estimated
Sun 05:06:00 PM 25.2611 51.5651 216° Southwest  Level Estimated
Sun 05:07:00 PM 25.2611 51.5651 216° Southwest  Level Estimated
Sun 05:08:00 PM 25.2611 51.5651 216° Southwest  Level Estimated
Sun 05:09:00 PM 25.2611 51.5651 216° Southwest  Level Estimated
Sun 05:10:00 PM 25.2611 51.5651 216° Southwest  Level Estimated
Sun 05:11:00 PM 25.2611 51.5651 216° Southwest  Level Estimated
Sun 05:12:00 PM 25.2611 51.5651 216° Southwest  Level Estimated
Sun 05:13:00 PM 25.2611 51.5651 216° Southwest  Level Estimated
Sun 05:14:00 PM 25.2611 51.5651 216° Southwest  Level Estimated
Sun 05:15:00 PM 25.2611 51.5651 216° Southwest  Level Estimated
Sun 05:16:00 PM 25.2611 51.5651 216° Southwest  Level Estimated
Sun 05:17:00 PM 25.2611 51.5651 216° Southwest  Level Estimated
Sun 05:18:00 PM 25.2611 51.5651 216° Southwest  Level Estimated

Login

Don't have an account? Register now (free) for customized features, flight alerts, and more!